Time;durP1;ratioP1;P1;durP2;ratioP2;P2;SDS_P1;SDS_P2;PMS_P1;PMS_P2;Temp;Humidity;BMP_temperature;BMP_pressure;BME280_temperature;BME280_humidity;BME280_pressure;Samples;Min_cycle;Max_cycle;Signal;HPM_P1;HPM_P2
2022/12/14 00:01:29;;;;;;;18.05;10.90;;;;;;;1.75;72.65;99711.97;1762007;81;21156;-79
2022/12/14 00:04:35;;;;;;;20.62;12.13;;;;;;;1.69;74.00;99727.31;1763483;81;21729;-78
2022/12/14 00:07:39;;;;;;;19.15;12.05;;;;;;;1.76;74.60;99739.28;1785387;80;21165;-78
2022/12/14 00:10:47;;;;;;;17.80;12.20;;;;;;;1.83;74.80;99746.83;1733342;81;21208;-78
2022/12/14 00:13:53;;;;;;;18.10;11.88;;;;;;;1.76;75.51;99751.92;1756734;81;21721;-78
2022/12/14 00:16:52;;;;;;;19.50;13.55;;;;;;;1.91;75.37;99757.31;1756811;81;21160;-79
2022/12/14 00:19:58;;;;;;;19.20;12.43;;;;;;;2.09;75.10;99756.19;1755403;81;21168;-78
2022/12/14 00:23:04;;;;;;;24.07;15.10;;;;;;;2.01;75.70;99764.09;1770362;81;21705;-78
2022/12/14 00:26:21;;;;;;;25.60;15.90;;;;;;;2.14;75.77;99763.38;1788254;80;21743;-79
2022/12/14 00:29:27;;;;;;;26.82;15.93;;;;;;;1.97;76.76;99768.90;1786945;80;21184;-79
2022/12/14 00:32:32;;;;;;;24.72;16.75;;;;;;;2.08;77.16;99780.12;1788285;80;21703;-79
2022/12/14 00:35:37;;;;;;;27.70;17.95;;;;;;;2.16;77.22;99786.17;1787081;80;21223;-79
2022/12/14 00:38:43;;;;;;;27.07;16.62;;;;;;;2.00;78.20;99786.67;1787653;80;21160;-79
2022/12/14 00:41:48;;;;;;;27.52;16.48;;;;;;;1.87;78.93;99786.88;1788448;80;21155;-78
2022/12/14 00:44:53;;;;;;;27.20;17.00;;;;;;;1.89;78.89;99787.63;1788518;80;21720;-78
2022/12/14 00:47:59;;;;;;;26.82;18.10;;;;;;;1.84;79.17;99790.36;1788406;80;21184;-78
2022/12/14 00:51:03;;;;;;;26.90;17.45;;;;;;;1.78;79.51;99791.23;1788377;80;21154;-79
2022/12/14 00:54:08;;;;;;;29.75;18.37;;;;;;;1.91;79.26;99801.81;1788194;80;21240;-79
2022/12/14 00:57:15;;;;;;;24.77;16.82;;;;;;;1.89;79.32;99809.20;1788293;80;21152;-79
2022/12/14 01:00:21;;;;;;;28.92;17.98;;;;;;;1.93;79.42;99806.59;1783800;80;21196;-79
2022/12/14 01:03:27;;;;;;;24.40;16.80;;;;;;;1.89;79.63;99811.89;1714698;82;21163;-79
2022/12/14 01:06:32;;;;;;;27.55;16.87;;;;;;;1.91;79.71;99815.80;1757337;81;21196;-79
2022/12/14 01:09:37;;;;;;;28.95;18.65;;;;;;;2.09;78.81;99823.64;1751582;82;21220;-79
2022/12/14 01:12:44;;;;;;;26.70;16.70;;;;;;;2.10;78.53;99825.34;1731558;81;21180;-79
2022/12/14 01:15:50;;;;;;;29.05;17.82;;;;;;;2.10;78.67;99829.39;1750972;82;21851;-78
2022/12/14 01:18:56;;;;;;;26.97;17.15;;;;;;;2.11;78.71;99836.98;1750829;82;21263;-79
2022/12/14 01:22:01;;;;;;;28.02;17.75;;;;;;;2.26;78.59;99850.51;1734852;82;21243;-78
2022/12/14 01:25:07;;;;;;;26.45;16.67;;;;;;;2.37;77.82;99850.91;1751093;80;21240;-77
2022/12/14 01:28:13;;;;;;;25.72;17.42;;;;;;;2.48;77.24;99859.75;1754184;82;21700;-78
2022/12/14 01:31:23;;;;;;;28.42;18.52;;;;;;;2.39;77.28;99866.45;1754345;82;21156;-79
2022/12/14 01:34:28;;;;;;;;;;;;;;;2.36;77.47;99873.50;1756877;81;21155;-78
2022/12/14 01:37:33;;;;;;;26.05;17.50;;;;;;;2.41;77.44;99876.64;1708924;84;20217;-79
2022/12/14 01:40:38;;;;;;;25.37;17.27;;;;;;;2.41;77.36;99890.14;1708981;82;21192;-79
2022/12/14 01:43:55;;;;;;;24.95;17.60;;;;;;;2.33;77.68;99889.95;1723229;83;21155;-79
2022/12/14 01:47:12;;;;;;;23.90;16.97;;;;;;;2.12;78.25;99892.66;1723089;83;21172;-79
2022/12/14 01:50:39;;;;;;;23.00;16.00;;;;;;;2.27;77.96;99902.99;1722588;83;21245;-79
2022/12/14 01:53:45;;;;;;;27.17;18.35;;;;;;;2.32;77.95;99908.48;1723086;83;21145;-78
2022/12/14 01:56:51;;;;;;;23.55;15.23;;;;;;;2.59;77.10;99912.83;1723079;83;21165;-78
2022/12/14 01:59:56;;;;;;;27.98;17.05;;;;;;;2.49;77.34;99918.64;1722466;83;21216;-79
2022/12/14 02:03:16;;;;;;;28.23;17.98;;;;;;;2.43;77.31;99921.89;1723140;83;21704;-79
2022/12/14 02:06:39;;;;;;;26.35;18.32;;;;;;;2.38;77.31;99926.34;1703114;83;21747;-79
2022/12/14 02:09:46;;;;;;;27.05;17.50;;;;;;;2.58;76.51;99934.05;1692061;85;21807;-79
2022/12/14 02:12:56;;;;;;;35.35;19.00;;;;;;;2.46;76.87;99941.88;1692495;85;21159;-79
2022/12/14 02:16:02;;;;;;;30.65;18.57;;;;;;;2.41;76.96;99948.18;1692853;85;21171;-79
2022/12/14 02:19:09;;;;;;;29.72;17.52;;;;;;;2.18;77.97;99959.60;1692448;85;21810;-78
2022/12/14 02:23:11;;;;;;;28.98;17.75;;;;;;;2.25;77.93;99965.67;1692490;84;21219;-78
2022/12/14 02:26:55;;;;;;;27.17;18.12;;;;;;;2.66;76.70;99968.48;1701062;84;21174;-79
2022/12/14 02:30:18;;;;;;;28.50;18.07;;;;;;;2.68;75.34;99968.73;1712730;83;21197;-79
2022/12/14 02:33:52;;;;;;;33.42;18.82;;;;;;;2.79;75.41;99974.03;1731739;83;21170;-80
2022/12/14 02:37:15;;;;;;;31.90;17.82;;;;;;;2.61;75.79;99981.54;1730337;83;21204;-79
2022/12/14 02:40:43;;;;;;;31.40;19.67;;;;;;;2.49;76.38;99985.68;1730681;83;21196;-79
2022/12/14 02:44:09;;;;;;;26.40;18.30;;;;;;;2.53;76.29;99982.19;1731635;83;21141;-79
2022/12/14 02:47:38;;;;;;;30.68;18.20;;;;;;;2.39;76.88;99980.69;1731684;83;21173;-79
2022/12/14 02:50:59;;;;;;;30.52;19.00;;;;;;;2.45;76.58;99992.33;1731596;83;21192;-79
2022/12/14 02:54:17;;;;;;;26.40;17.17;;;;;;;2.29;76.71;99988.72;1731651;83;21780;-79
2022/12/14 02:57:35;;;;;;;27.58;17.82;;;;;;;2.27;77.16;99996.10;1730095;83;21191;-79
2022/12/14 03:00:41;;;;;;;28.25;17.37;;;;;;;2.54;76.30;100002.80;1730339;83;22017;-80
2022/12/14 03:03:39;;;;;;;24.95;16.17;;;;;;;2.89;74.78;100004.30;1730428;83;21176;-80
2022/12/14 03:06:45;;;;;;;27.07;16.75;;;;;;;2.41;75.81;100001.67;1702699;83;21197;-79
2022/12/14 03:09:51;;;;;;;25.50;16.07;;;;;;;2.29;76.27;100014.36;1689529;85;21212;-79
2022/12/14 03:13:04;;;;;;;24.60;15.75;;;;;;;2.37;76.32;100016.41;1720806;83;21175;-79
2022/12/14 03:16:22;;;;;;;24.32;16.15;;;;;;;2.24;76.68;100024.69;1720510;83;21497;-79
2022/12/14 03:19:35;;;;;;;26.68;17.32;;;;;;;2.29;76.50;100017.05;1720754;83;21806;-79
2022/12/14 03:22:51;;;;;;;22.80;15.50;;;;;;;2.16;76.80;100020.42;1757827;81;21848;-80
2022/12/14 03:26:04;;;;;;;24.45;14.50;;;;;;;2.21;77.05;100029.02;1785386;80;22356;-79
2022/12/14 03:29:17;;;;;;;25.10;16.25;;;;;;;2.44;76.47;100031.58;1758182;81;21187;-79
2022/12/14 03:32:24;;;;;;;23.95;15.30;;;;;;;2.49;76.24;100029.34;1753084;82;21161;-79
2022/12/14 03:35:38;;;;;;;26.17;14.73;;;;;;;2.43;76.38;100037.48;1785786;80;21235;-79
2022/12/14 03:38:47;;;;;;;23.27;14.35;;;;;;;2.59;75.94;100033.45;1698742;84;21160;-79
2022/12/14 03:42:02;;;;;;;25.32;15.10;;;;;;;2.73;75.32;100046.63;1724765;83;21196;-79
2022/12/14 03:45:24;;;;;;;22.45;15.08;;;;;;;2.60;75.49;100044.14;1724786;83;21243;-78
2022/12/14 03:48:54;;;;;;;21.95;14.78;;;;;;;2.54;75.76;100058.15;1699098;84;21207;-80
2022/12/14 03:52:19;;;;;;;21.02;14.53;;;;;;;2.73;74.68;100058.77;1730692;82;21215;-79
2022/12/14 03:55:29;;;;;;;22.73;13.58;;;;;;;2.65;74.82;100067.55;1752464;82;21156;-79
2022/12/14 03:59:09;;;;;;;22.25;14.15;;;;;;;2.43;75.62;100069.88;1755319;82;21140;-79
2022/12/14 04:02:25;;;;;;;21.73;13.65;;;;;;;2.69;75.24;100081.16;1647170;86;21197;-80
2022/12/14 04:05:46;;;;;;;24.95;14.30;;;;;;;2.75;74.91;100086.03;1707453;83;21244;-79
2022/12/14 04:09:15;;;;;;;19.00;12.93;;;;;;;2.63;74.94;100097.02;1704137;84;21244;-79
2022/12/14 04:20:03;;;;;;;18.50;12.25;;;;;;;2.84;73.74;100107.34;1703549;84;21244;-79
2022/12/14 04:26:57;;;;;;;18.40;12.40;;;;;;;3.22;72.88;100117.53;1628166;84;21280;-79
2022/12/14 04:30:02;;;;;;;19.60;12.28;;;;;;;2.84;73.66;100125.41;1680910;85;21223;-79
2022/12/14 04:36:47;;;;;;;19.95;11.78;;;;;;;2.46;73.90;100134.91;1693493;83;21176;-79
2022/12/14 04:40:25;;;;;;;22.07;12.03;;;;;;;2.03;76.10;100133.09;1697038;84;21206;-79
2022/12/14 04:43:22;;;;;;;17.55;11.05;;;;;;;1.99;75.95;100145.96;1697078;84;21213;-79
2022/12/14 04:46:13;;;;;;;20.47;13.00;;;;;;;1.90;75.94;100152.59;1714031;82;21237;-80
2022/12/14 04:49:10;;;;;;;17.25;11.48;;;;;;;2.03;75.81;100154.67;1741760;81;22098;-79
2022/12/14 04:52:04;;;;;;;18.23;12.00;;;;;;;1.94;75.57;100159.47;1743246;81;21790;-79
2022/12/14 04:55:05;;;;;;;16.40;11.50;;;;;;;1.76;75.71;100172.09;1744721;82;21222;-80
2022/12/14 04:58:04;;;;;;;18.00;11.73;;;;;;;1.62;75.91;100180.93;1747041;81;21164;-78
2022/12/14 05:01:24;;;;;;;19.35;11.22;;;;;;;1.51;76.07;100180.44;1739606;81;21170;-78
2022/12/14 05:04:37;;;;;;;17.15;12.25;;;;;;;1.36;76.48;100182.48;1744258;81;21225;-77
2022/12/14 05:08:11;;;;;;;14.85;9.63;;;;;;;1.31;76.65;100186.53;1728403;83;21207;-79
2022/12/14 05:11:24;;;;;;;15.43;10.55;;;;;;;1.23;76.84;100193.88;1716627;83;21258;-78
2022/12/14 05:14:41;;;;;;;18.98;10.93;;;;;;;1.25;76.75;100195.95;1713197;83;21236;-78
2022/12/14 05:17:47;;;;;;;17.73;11.25;;;;;;;1.17;76.95;100192.50;1702862;83;21686;-78
2022/12/14 05:20:54;;;;;;;17.37;11.15;;;;;;;1.05;76.96;100198.00;1729766;83;21753;-78
2022/12/14 05:23:59;;;;;;;16.82;11.05;;;;;;;0.98;77.02;100215.10;1731631;83;21222;-80
2022/12/14 05:27:04;;;;;;;16.35;10.72;;;;;;;1.03;76.72;100218.30;1733748;81;21224;-78
2022/12/14 05:30:09;;;;;;;18.67;11.10;;;;;;;0.88;77.07;100222.17;1736733;82;21236;-79
2022/12/14 05:33:26;;;;;;;16.40;10.72;;;;;;;0.74;77.45;100232.15;1736534;82;21824;-80
2022/12/14 05:36:31;;;;;;;17.00;10.40;;;;;;;0.71;77.48;100228.85;1732348;82;21164;-78
2022/12/14 05:39:36;;;;;;;18.07;11.45;;;;;;;0.57;77.45;100239.80;1736267;82;21210;-78
2022/12/14 05:42:40;;;;;;;16.30;10.75;;;;;;;0.51;77.63;100241.08;1734548;82;21196;-80
2022/12/14 05:45:40;;;;;;;15.32;9.75;;;;;;;0.33;77.69;100237.06;1735745;82;21176;-78
2022/12/14 05:48:47;;;;;;;16.87;9.40;;;;;;;0.37;77.80;100238.55;1735796;82;21157;-78
2022/12/14 05:51:52;;;;;;;15.28;9.85;;;;;;;0.27;77.74;100251.83;1735515;82;21180;-80
2022/12/14 05:54:57;;;;;;;14.60;10.00;;;;;;;0.24;77.63;100250.73;1734880;82;21156;-80
2022/12/14 05:58:03;;;;;;;17.30;9.60;;;;;;;0.60;76.78;100267.81;1734803;82;21216;-79
2022/12/14 06:01:09;;;;;;;15.75;10.45;;;;;;;0.48;76.64;100273.63;1734672;82;21152;-79
2022/12/14 06:04:20;;;;;;;15.05;9.15;;;;;;;0.37;77.04;100285.16;1735226;82;21171;-79
2022/12/14 06:07:26;;;;;;;16.93;9.40;;;;;;;0.31;77.18;100293.68;1735240;82;21156;-78
2022/12/14 06:10:32;;;;;;;16.07;10.43;;;;;;;0.46;76.99;100300.63;1731895;82;21187;-80
2022/12/14 06:13:37;;;;;;;13.83;9.00;;;;;;;0.41;77.38;100302.80;1732461;80;21163;-77
2022/12/14 06:16:42;;;;;;;17.70;10.15;;;;;;;0.44;76.89;100304.42;1751758;81;21167;-78
2022/12/14 06:19:48;;;;;;;14.15;8.53;;;;;;;0.25;76.90;100310.28;1697264;82;21258;-78
2022/12/14 06:22:53;;;;;;;13.95;9.00;;;;;;;0.33;76.69;100313.73;1751348;81;21203;-79
2022/12/14 06:26:02;;;;;;;14.07;8.13;;;;;;;0.45;75.68;100318.25;1751977;80;21749;-77
2022/12/14 06:29:08;;;;;;;11.68;8.60;;;;;;;0.27;76.09;100327.16;1714117;83;21217;-77
2022/12/14 06:32:13;;;;;;;12.23;8.03;;;;;;;0.27;76.14;100335.72;1711203;84;21185;-79
2022/12/14 06:35:19;;;;;;;12.78;8.20;;;;;;;0.21;76.27;100339.71;1709983;84;21224;-77
2022/12/14 06:38:24;;;;;;;13.15;8.30;;;;;;;0.15;75.97;100353.13;1711104;84;21833;-80
2022/12/14 06:41:30;;;;;;;13.80;7.78;;;;;;;0.19;75.79;100353.77;1712482;84;21177;-80
2022/12/14 06:44:35;;;;;;;12.68;8.28;;;;;;;0.20;75.39;100364.90;1715893;82;30231;-80
2022/12/14 06:47:40;;;;;;;20.60;11.10;;;;;;;0.18;75.36;100362.30;1731069;82;21203;-78
2022/12/14 06:50:46;;;;;;;16.82;9.50;;;;;;;0.00;75.80;100367.66;1733780;82;21806;-79
2022/12/14 06:53:51;;;;;;;14.58;8.33;;;;;;;0.05;75.90;100368.19;1720406;82;21192;-78
2022/12/14 06:56:56;;;;;;;13.65;9.10;;;;;;;-0.08;76.19;100375.39;1724795;82;21159;-80
2022/12/14 07:00:02;;;;;;;13.75;9.05;;;;;;;0.07;76.06;100381.03;1711827;82;21182;-78
2022/12/14 07:03:08;;;;;;;13.43;8.68;;;;;;;0.08;76.41;100384.09;1711304;82;21185;-78
2022/12/14 07:06:15;;;;;;;18.65;9.40;;;;;;;0.15;76.13;100385.89;1705898;82;21246;-77
2022/12/14 07:09:20;;;;;;;19.48;8.50;;;;;;;0.04;76.11;100393.34;1715117;82;21191;-77
2022/12/14 07:12:26;;;;;;;12.35;8.00;;;;;;;0.02;76.48;100397.98;1734075;81;21154;-78
2022/12/14 07:15:33;;;;;;;17.30;8.98;;;;;;;0.00;75.85;100406.66;1723071;82;21179;-79
2022/12/14 07:18:38;;;;;;;15.13;8.88;;;;;;;-0.09;76.86;100412.18;1720624;82;21760;-79
2022/12/14 07:21:44;;;;;;;14.60;8.78;;;;;;;-0.08;76.87;100419.76;1737159;81;21141;-79
2022/12/14 07:24:50;;;;;;;13.20;9.48;;;;;;;-0.18;76.25;100421.36;1700648;83;22193;-79
2022/12/14 07:27:55;;;;;;;14.75;8.58;;;;;;;-0.22;76.32;100419.84;1727418;82;21744;-79
2022/12/14 07:31:02;;;;;;;13.20;7.58;;;;;;;0.17;75.04;100422.45;1735375;81;22194;-80
2022/12/14 07:34:07;;;;;;;11.48;8.70;;;;;;;0.17;75.26;100427.84;1729702;81;21211;-80
2022/12/14 07:37:12;;;;;;;14.95;9.08;;;;;;;0.25;74.89;100425.48;1729081;81;21747;-80
2022/12/14 07:40:18;;;;;;;11.90;8.65;;;;;;;0.18;74.98;100437.63;1738578;81;21186;-80
2022/12/14 07:43:17;;;;;;;13.80;8.68;;;;;;;0.25;75.20;100450.17;1737678;81;21199;-80
2022/12/14 07:46:25;;;;;;;12.70;8.05;;;;;;;0.45;74.74;100455.50;1738667;81;21176;-80
2022/12/14 07:49:31;;;;;;;13.55;9.55;;;;;;;0.66;74.27;100462.06;1739312;81;21167;-80
2022/12/14 07:52:37;;;;;;;13.62;8.40;;;;;;;0.73;74.06;100467.86;1738991;81;21158;-80
2022/12/14 07:55:42;;;;;;;12.90;8.18;;;;;;;0.76;73.88;100473.04;1731412;81;21415;-80
2022/12/14 07:58:49;;;;;;;14.50;8.30;;;;;;;0.87;73.84;100468.22;1736013;81;21677;-81
2022/12/14 08:01:48;;;;;;;17.65;9.38;;;;;;;0.90;73.66;100463.97;1733217;81;21139;-80
2022/12/14 08:04:55;;;;;;;15.00;8.70;;;;;;;0.87;73.92;100465.53;1729304;81;21179;-79
2022/12/14 08:08:02;;;;;;;13.68;8.05;;;;;;;0.94;73.78;100477.56;1733638;81;21783;-79
2022/12/14 08:11:07;;;;;;;11.35;7.95;;;;;;;1.00;72.86;100477.14;1735294;81;21207;-80
2022/12/14 08:14:17;;;;;;;12.93;7.58;;;;;;;0.98;72.79;100479.06;1736581;81;21175;-79
2022/12/14 08:17:23;;;;;;;12.95;8.20;;;;;;;0.98;72.93;100473.67;1736865;81;21148;-79
2022/12/14 08:20:28;;;;;;;15.20;8.40;;;;;;;1.05;72.49;100473.63;1741191;81;21183;-79
2022/12/14 08:23:34;;;;;;;11.93;7.83;;;;;;;1.16;71.85;100465.61;1732435;81;21180;-79
2022/12/14 08:26:39;;;;;;;8.68;6.70;;;;;;;1.14;71.86;100467.56;1747213;80;21628;-80
2022/12/14 08:29:46;;;;;;;10.95;7.75;;;;;;;1.21;71.47;100479.60;1749745;80;21792;-79
2022/12/14 08:32:53;;;;;;;12.33;7.40;;;;;;;1.10;71.58;100484.92;1721837;82;21210;-80
2022/12/14 08:36:00;;;;;;;10.93;6.72;;;;;;;0.98;72.00;100481.77;1732229;81;21191;-76
2022/12/14 08:39:07;;;;;;;11.90;7.78;;;;;;;0.94;71.87;100486.53;1736235;81;21190;-77
2022/12/14 08:42:12;;;;;;;11.30;7.08;;;;;;;1.05;72.18;100489.79;1742359;81;21226;-78
2022/12/14 08:45:18;;;;;;;10.13;6.97;;;;;;;1.17;71.76;100504.19;1731788;81;21784;-77
2022/12/14 08:48:23;;;;;;;11.45;7.80;;;;;;;1.34;71.23;100507.87;1749312;80;21161;-80
2022/12/14 08:51:30;;;;;;;9.13;6.03;;;;;;;1.17;71.32;100507.73;1715664;82;21259;-78
2022/12/14 08:54:35;;;;;;;9.58;6.08;;;;;;;1.16;71.30;100513.25;1717033;82;21817;-77
2022/12/14 08:57:41;;;;;;;9.23;6.65;;;;;;;1.33;71.23;100510.20;1743812;80;21189;-77
2022/12/14 09:04:04;;;;;;;9.75;6.65;;;;;;;1.50;70.75;100510.28;1661498;84;21203;-80
2022/12/14 09:07:08;;;;;;;11.60;6.90;;;;;;;1.62;70.16;100517.47;1610842;88;21497;-81
2022/12/14 09:10:14;;;;;;;10.32;6.50;;;;;;;1.67;70.08;100517.98;1668780;85;21174;-80
2022/12/14 09:13:20;;;;;;;10.68;7.47;;;;;;;1.48;70.74;100509.55;1675841;85;21238;-80
2022/12/14 09:16:27;;;;;;;9.70;6.78;;;;;;;1.54;71.00;100515.34;1611396;88;21776;-80
2022/12/14 09:19:26;;;;;;;11.95;7.70;;;;;;;1.94;70.65;100520.95;1612324;87;21217;-79
2022/12/14 09:22:19;;;;;;;11.35;7.45;;;;;;;2.08;70.30;100522.11;1613688;89;22058;-80
2022/12/14 09:25:24;;;;;;;13.72;7.17;;;;;;;1.97;70.62;100532.84;1611281;88;21737;-80
2022/12/14 09:28:29;;;;;;;14.60;7.95;;;;;;;2.01;70.48;100538.37;1621740;87;21215;-80
2022/12/14 09:31:34;;;;;;;12.35;8.23;;;;;;;2.02;70.36;100538.74;1637604;86;21223;-80
2022/12/14 09:34:40;;;;;;;14.07;8.30;;;;;;;1.93;70.84;100548.87;1624141;87;21200;-81
2022/12/14 09:37:46;;;;;;;13.15;8.95;;;;;;;1.82;70.73;100552.88;1640115;87;21247;-79
2022/12/14 09:41:05;;;;;;;14.73;8.98;;;;;;;1.81;70.62;100547.12;1663143;85;21297;-79
2022/12/14 09:44:39;;;;;;;17.62;10.80;;;;;;;1.77;70.77;100547.34;1660426;85;21839;-81
2022/12/14 09:47:50;;;;;;;14.58;9.55;;;;;;;1.69;71.02;100542.99;1636826;86;21225;-77
2022/12/14 09:50:55;;;;;;;;;;;;;;;1.69;71.50;100555.13;1637771;86;21220;-77
2022/12/14 09:54:06;;;;;;;13.68;9.48;;;;;;;1.63;71.91;100558.29;1676434;85;20198;-78
2022/12/14 09:57:21;;;;;;;15.35;10.55;;;;;;;1.60;72.31;100554.48;1634705;86;21182;-79
2022/12/14 10:00:28;;;;;;;14.70;9.80;;;;;;;1.70;72.46;100559.58;1601745;88;21195;-77
2022/12/14 10:03:49;;;;;;;16.75;10.68;;;;;;;1.79;72.86;100565.63;1634813;87;21236;-77
2022/12/14 10:07:19;;;;;;;19.45;12.53;;;;;;;1.78;72.76;100557.14;1638857;87;21216;-77
2022/12/14 10:10:46;;;;;;;18.73;12.00;;;;;;;1.81;72.81;100560.61;1643401;86;21243;-77
2022/12/14 10:14:08;;;;;;;17.10;11.57;;;;;;;1.96;72.67;100560.31;1670662;85;21118;-77
2022/12/14 10:17:28;;;;;;;19.57;12.73;;;;;;;1.95;72.65;100564.48;1678279;84;21649;-79
2022/12/14 10:20:56;;;;;;;17.90;12.15;;;;;;;1.89;72.73;100560.91;1679813;85;21766;-81
2022/12/14 10:24:10;;;;;;;18.67;11.50;;;;;;;2.05;72.23;100567.72;1679418;85;21786;-77
2022/12/14 10:27:16;;;;;;;17.05;11.97;;;;;;;2.00;72.31;100570.39;1674052;84;21235;-77
2022/12/14 10:30:24;;;;;;;16.35;11.10;;;;;;;2.21;71.65;100582.28;1680809;85;21201;-77
2022/12/14 10:33:38;;;;;;;17.37;12.13;;;;;;;2.14;71.94;100578.30;1671300;85;21695;-77
2022/12/14 10:36:48;;;;;;;16.55;10.80;;;;;;;2.05;72.63;100576.30;1678142;85;21146;-77
2022/12/14 10:40:05;;;;;;;24.20;12.58;;;;;;;2.06;72.43;100578.02;1677399;85;21750;-77
2022/12/14 10:43:45;;;;;;;17.23;12.88;;;;;;;1.99;72.83;100582.17;1649145;86;21252;-80
2022/12/14 10:47:07;;;;;;;17.52;12.18;;;;;;;2.11;72.77;100578.53;1673665;84;21154;-77
2022/12/14 10:50:30;;;;;;;16.62;11.25;;;;;;;2.07;72.96;100581.11;1681599;85;21249;-78
2022/12/14 10:53:46;;;;;;;17.45;11.85;;;;;;;2.10;72.74;100578.16;1667397;85;21134;-77
2022/12/14 10:56:53;;;;;;;18.52;11.45;;;;;;;2.28;71.69;100576.77;1661288;84;21186;-77
2022/12/14 10:59:58;;;;;;;18.30;11.63;;;;;;;2.13;71.93;100583.83;1677004;84;21157;-80
2022/12/14 11:03:08;;;;;;;19.77;11.70;;;;;;;2.13;72.00;100591.44;1675741;84;21222;-80
2022/12/14 11:06:21;;;;;;;17.98;11.15;;;;;;;2.05;72.44;100593.34;1629523;85;21194;-77
2022/12/14 11:09:28;;;;;;;18.20;11.25;;;;;;;1.93;72.79;100588.00;1641139;85;21826;-77
2022/12/14 11:12:34;;;;;;;16.80;11.03;;;;;;;1.92;72.26;100584.94;1607848;89;21209;-78
2022/12/14 11:15:56;;;;;;;17.10;11.53;;;;;;;1.91;72.04;100580.52;1608220;89;21253;-77
2022/12/14 11:19:06;;;;;;;18.00;11.65;;;;;;;1.81;72.71;100582.19;1611687;89;21225;-77
2022/12/14 11:22:19;;;;;;;21.85;13.35;;;;;;;1.95;72.22;100595.51;1610458;89;21269;-78
2022/12/14 11:25:47;;;;;;;16.60;11.85;;;;;;;1.97;71.95;100601.63;1611899;89;21257;-80
2022/12/14 11:28:57;;;;;;;17.65;11.90;;;;;;;1.74;73.03;100604.68;1644729;87;21245;-78
2022/12/14 11:32:03;;;;;;;16.77;11.60;;;;;;;1.82;72.90;100602.78;1650474;87;21176;-79
2022/12/14 11:35:09;;;;;;;17.65;11.45;;;;;;;2.06;71.78;100592.86;1608921;89;21754;-79
2022/12/14 11:38:07;;;;;;;21.95;13.13;;;;;;;2.21;71.10;100598.94;1602333;88;21712;-78
2022/12/14 11:41:12;;;;;;;21.07;12.28;;;;;;;2.17;70.57;100606.91;1608325;89;21229;-79
2022/12/14 11:44:30;;;;;;;15.83;10.70;;;;;;;2.11;71.11;100600.61;1609286;89;21231;-78
2022/12/14 11:47:36;;;;;;;17.70;12.00;;;;;;;1.98;71.65;100616.38;1608132;89;21205;-78
2022/12/14 11:50:42;;;;;;;17.95;11.48;;;;;;;1.94;71.98;100612.67;1614607;89;21229;-77
2022/12/14 11:53:48;;;;;;;16.73;10.90;;;;;;;1.95;72.23;100610.34;1613548;89;21191;-78
2022/12/14 11:56:55;;;;;;;17.80;11.78;;;;;;;1.95;71.39;100607.16;1613768;89;21798;-78
2022/12/14 12:00:13;;;;;;;17.17;11.38;;;;;;;1.90;70.68;100610.69;1652209;86;21193;-79
2022/12/14 12:03:36;;;;;;;19.23;12.00;;;;;;;1.98;70.27;100624.48;1651138;86;21196;-78
2022/12/14 12:06:41;;;;;;;18.48;13.10;;;;;;;1.84;69.82;100629.17;1650808;85;21170;-80
2022/12/14 12:09:48;;;;;;;18.95;12.03;;;;;;;1.69;70.72;100630.64;1676403;85;21198;-78
2022/12/14 12:13:05;;;;;;;21.40;12.23;;;;;;;1.56;71.33;100639.27;1675994;85;21757;-80
2022/12/14 12:16:19;;;;;;;17.95;11.55;;;;;;;1.61;71.65;100641.14;1663485;85;21234;-78
2022/12/14 12:19:31;;;;;;;17.52;12.55;;;;;;;1.53;72.09;100638.13;1660638;86;21211;-80
2022/12/14 12:22:35;;;;;;;19.73;12.73;;;;;;;1.46;71.92;100634.17;1628367;87;21228;-78
2022/12/14 12:25:41;;;;;;;19.23;12.88;;;;;;;1.54;71.84;100629.06;1635896;87;21247;-80
2022/12/14 12:28:51;;;;;;;17.55;12.23;;;;;;;1.57;72.36;100639.64;1634894;86;21200;-78
2022/12/14 12:32:03;;;;;;;17.07;12.07;;;;;;;1.78;71.91;100643.94;1655279;86;21181;-80
2022/12/14 12:35:30;;;;;;;16.85;12.25;;;;;;;1.64;71.59;100641.39;1660037;85;21540;-78
2022/12/14 12:39:07;;;;;;;19.42;12.82;;;;;;;1.54;71.73;100652.84;1628713;86;21223;-77
2022/12/14 12:42:32;;;;;;;19.50;13.03;;;;;;;1.53;72.00;100651.13;1637789;86;21175;-80
2022/12/14 12:45:47;;;;;;;20.43;13.30;;;;;;;1.61;71.74;100662.71;1629141;88;21254;-80
2022/12/14 12:49:02;;;;;;;21.25;13.40;;;;;;;1.55;71.56;100668.52;1678085;85;21521;-79
2022/12/14 12:52:10;;;;;;;19.67;13.88;;;;;;;1.54;71.67;100681.14;1663501;85;21197;-78
2022/12/14 12:55:24;;;;;;;15.58;11.78;;;;;;;1.51;71.73;100693.52;1677210;85;21174;-78
2022/12/14 12:58:35;;;;;;;21.45;14.53;;;;;;;1.51;71.91;100688.61;1675562;84;21187;-77
2022/12/14 13:01:49;;;;;;;20.43;14.28;;;;;;;1.46;72.20;100706.47;1632750;86;21745;-80
2022/12/14 13:04:57;;;;;;;16.57;12.15;;;;;;;1.49;72.25;100710.27;1640047;86;21255;-78
2022/12/14 13:08:10;;;;;;;15.98;11.85;;;;;;;1.51;72.19;100702.09;1637735;86;21170;-80
2022/12/14 13:11:22;;;;;;;19.50;13.80;;;;;;;1.54;72.08;100713.50;1621949;88;21481;-80
2022/12/14 13:14:47;;;;;;;23.50;13.18;;;;;;;1.58;71.98;100720.89;1630517;88;21255;-80
2022/12/14 13:18:00;;;;;;;18.82;13.05;;;;;;;1.53;71.93;100716.31;1639855;86;21280;-80
2022/12/14 13:21:11;;;;;;;22.40;15.38;;;;;;;1.40;72.39;100715.45;1620551;87;21223;-77
2022/12/14 13:24:22;;;;;;;18.77;13.83;;;;;;;1.45;72.23;100715.50;1636524;85;21291;-80
2022/12/14 13:27:57;;;;;;;23.32;14.58;;;;;;;1.52;71.97;100725.38;1646363;86;21203;-80
2022/12/14 13:31:15;;;;;;;22.07;14.75;;;;;;;1.40;72.14;100720.84;1642771;86;21220;-77
2022/12/14 13:34:55;;;;;;;25.48;16.07;;;;;;;1.34;72.49;100710.50;1624040;86;21279;-80
2022/12/14 13:38:12;;;;;;;;;;;;;;;1.33;72.49;100704.73;1638665;87;21208;-78
2022/12/14 13:41:47;;;;;;;22.70;15.48;;;;;;;1.29;72.59;100717.56;1638376;86;20641;-78
2022/12/14 13:45:05;;;;;;;30.57;18.82;;;;;;;1.23;73.05;100725.59;1638337;86;21833;-80
2022/12/14 13:48:30;;;;;;;23.22;15.70;;;;;;;1.26;72.89;100729.41;1649239;86;21220;-80
2022/12/14 13:51:40;;;;;;;24.07;15.08;;;;;;;1.15;72.99;100723.91;1646779;85;21208;-77
2022/12/14 13:54:48;;;;;;;27.62;16.90;;;;;;;1.12;73.18;100718.72;1677945;85;21231;-80
2022/12/14 13:57:54;;;;;;;25.85;17.62;;;;;;;1.05;73.49;100716.08;1678040;85;21165;-80
2022/12/14 14:01:06;;;;;;;29.95;19.37;;;;;;;1.02;73.62;100727.06;1650971;85;21223;-80
2022/12/14 14:04:26;;;;;;;24.40;15.95;;;;;;;1.17;73.45;100717.05;1637642;85;21261;-80
2022/12/14 14:07:34;;;;;;;;;;;;;;;1.13;73.56;100716.88;1651630;86;21216;-77
2022/12/14 14:10:44;;;;;;;33.73;18.27;;;;;;;1.20;73.23;100719.06;1654555;86;20198;-77
2022/12/14 14:13:59;;;;;;;38.08;20.70;;;;;;;1.08;73.53;100737.41;1665517;86;21192;-76
2022/12/14 14:17:06;;;;;;;30.97;19.48;;;;;;;1.10;73.19;100742.22;1658638;86;21208;-80
2022/12/14 14:20:41;;;;;;;29.07;19.50;;;;;;;1.18;72.81;100736.31;1657630;86;21276;-78
2022/12/14 14:24:08;;;;;;;30.05;19.30;;;;;;;1.15;72.95;100738.72;1658516;86;21196;-81
2022/12/14 14:27:20;;;;;;;28.12;18.70;;;;;;;0.92;73.54;100743.48;1658368;86;21230;-79
2022/12/14 14:30:40;;;;;;;37.30;22.93;;;;;;;1.02;73.26;100749.95;1657913;86;21288;-77
2022/12/14 14:34:00;;;;;;;39.20;23.27;;;;;;;1.03;73.01;100751.67;1658822;86;21440;-78
2022/12/14 14:37:05;;;;;;;55.60;29.30;;;;;;;1.01;72.87;100750.94;1658591;85;21188;-78
2022/12/14 14:40:21;;;;;;;45.05;25.48;;;;;;;0.79;73.30;100754.20;1659327;86;21207;-78
2022/12/14 14:43:41;;;;;;;39.20;23.70;;;;;;;0.93;73.09;100747.89;1658896;86;21184;-78
2022/12/14 14:46:54;;;;;;;36.48;22.32;;;;;;;0.88;73.26;100751.38;1659317;86;21188;-80
2022/12/14 14:50:09;;;;;;;39.25;23.12;;;;;;;0.71;73.52;100745.80;1658830;86;21269;-78
2022/12/14 14:53:22;;;;;;;42.67;22.98;;;;;;;0.61;74.12;100741.97;1654297;85;21279;-81
2022/12/14 14:56:42;;;;;;;35.17;20.85;;;;;;;0.57;74.37;100736.44;1638558;86;21216;-80
2022/12/14 14:59:51;;;;;;;30.70;19.10;;;;;;;0.23;75.21;100750.25;1657311;86;21239;-81
2022/12/14 15:02:59;;;;;;;32.13;19.02;;;;;;;0.31;75.33;100754.28;1657986;86;21255;-80